Time;durP1;ratioP1;P1;durP2;ratioP2;P2;SDS_P1;SDS_P2;PMS_P1;PMS_P2;Temp;Humidity;BMP_temperature;BMP_pressure;BME280_temperature;BME280_humidity;BME280_pressure;Samples;Min_cycle;Max_cycle;Signal;HPM_P1;HPM_P2
2024/01/02 00:00:13;;;;;;;19.25;5.72;;;;;;;;;;5013785;28;20045;-76
2024/01/02 00:02:38;;;;;;;12.50;5.07;;;;;;;;;;5013461;28;20030;-75
2024/01/02 00:05:04;;;;;;;17.77;5.63;;;;;;;;;;5013698;28;20073;-76
2024/01/02 00:07:29;;;;;;;16.23;5.30;;;;;;;;;;5013733;28;20022;-76
2024/01/02 00:09:54;;;;;;;17.15;6.13;;;;;;;;;;5013283;28;20035;-76
2024/01/02 00:12:19;;;;;;;16.20;4.50;;;;;;;;;;5013483;28;20113;-76
2024/01/02 00:14:44;;;;;;;14.45;4.53;;;;;;;;;;5013700;28;20413;-78
2024/01/02 00:17:10;;;;;;;14.43;4.40;;;;;;;;;;5013535;28;20427;-76
2024/01/02 00:19:35;;;;;;;12.87;4.57;;;;;;;;;;5013272;28;20396;-76
2024/01/02 00:22:00;;;;;;;15.73;4.13;;;;;;;;;;5013314;28;20276;-77
2024/01/02 00:24:25;;;;;;;15.48;4.50;;;;;;;;;;5013902;28;20029;-76
2024/01/02 00:26:50;;;;;;;8.93;3.70;;;;;;;;;;5013507;28;20018;-76
2024/01/02 00:29:16;;;;;;;11.95;4.03;;;;;;;;;;5013179;28;20029;-76
2024/01/02 00:31:44;;;;;;;10.35;3.60;;;;;;;;;;5013314;28;20010;-76
2024/01/02 00:34:09;;;;;;;8.48;3.30;;;;;;;;;;5013388;28;20018;-76
2024/01/02 00:36:35;;;;;;;7.55;3.50;;;;;;;;;;5012974;28;20022;-76
2024/01/02 00:39:00;;;;;;;14.57;3.58;;;;;;;;;;5012617;28;20033;-76
2024/01/02 00:41:25;;;;;;;8.63;3.15;;;;;;;;;;5013418;28;20038;-76
2024/01/02 00:43:50;;;;;;;12.57;3.60;;;;;;;;;;5013493;28;20029;-76
2024/01/02 00:46:16;;;;;;;10.30;3.55;;;;;;;;;;5012859;28;20025;-75
2024/01/02 00:48:41;;;;;;;12.43;3.63;;;;;;;;;;5013153;28;20032;-76
2024/01/02 00:51:06;;;;;;;8.82;3.33;;;;;;;;;;5012716;28;20130;-76
2024/01/02 00:53:31;;;;;;;10.60;3.35;;;;;;;;;;5013146;28;20442;-76
2024/01/02 00:55:57;;;;;;;10.20;3.90;;;;;;;;;;5012677;28;20022;-76
2024/01/02 00:58:22;;;;;;;12.63;4.13;;;;;;;;;;5012893;28;20253;-76
2024/01/02 01:00:47;;;;;;;9.30;3.60;;;;;;;;;;5012947;28;20378;-75
2024/01/02 01:03:13;;;;;;;9.52;3.38;;;;;;;;;;5011331;28;20359;-75
2024/01/02 01:05:38;;;;;;;13.15;3.80;;;;;;;;;;5013164;28;20037;-75
2024/01/02 01:08:04;;;;;;;12.73;3.83;;;;;;;;;;5012310;28;20026;-75
2024/01/02 01:10:29;;;;;;;15.95;4.85;;;;;;;;;;5012898;28;20025;-75
2024/01/02 01:12:54;;;;;;;9.70;3.40;;;;;;;;;;5011482;28;20111;-75
2024/01/02 01:15:20;;;;;;;15.90;3.72;;;;;;;;;;5011238;28;20022;-75
2024/01/02 01:17:45;;;;;;;6.05;2.83;;;;;;;;;;5012546;28;20029;-75
2024/01/02 01:20:10;;;;;;;8.27;2.80;;;;;;;;;;5012465;28;20488;-75
2024/01/02 01:22:36;;;;;;;8.93;3.03;;;;;;;;;;5012501;28;20021;-75
2024/01/02 01:25:01;;;;;;;6.80;2.58;;;;;;;;;;5011588;28;20352;-76
2024/01/02 01:27:26;;;;;;;6.10;2.47;;;;;;;;;;5012359;28;20026;-75
2024/01/02 01:29:51;;;;;;;5.22;2.38;;;;;;;;;;5012152;28;20066;-75
2024/01/02 01:32:17;;;;;;;7.60;2.35;;;;;;;;;;5011345;28;20075;-75
2024/01/02 01:34:42;;;;;;;10.00;2.85;;;;;;;;;;5012461;28;20026;-76
2024/01/02 01:37:07;;;;;;;12.10;2.20;;;;;;;;;;5012369;28;20053;-76
2024/01/02 01:39:33;;;;;;;7.15;2.42;;;;;;;;;;5012304;28;20376;-77
2024/01/02 01:41:58;;;;;;;6.57;2.30;;;;;;;;;;5012291;28;20022;-77
2024/01/02 01:44:23;;;;;;;8.40;2.28;;;;;;;;;;5011957;28;20261;-77
2024/01/02 01:46:49;;;;;;;7.22;2.58;;;;;;;;;;5012486;28;20030;-76
2024/01/02 01:49:14;;;;;;;5.93;2.40;;;;;;;;;;5014275;28;20050;-78
2024/01/02 01:51:41;;;;;;;8.00;2.25;;;;;;;;;;5016724;28;20521;-75
2024/01/02 01:54:06;;;;;;;67.28;3.60;;;;;;;;;;5016607;28;20030;-76
2024/01/02 01:56:32;;;;;;;4.45;1.98;;;;;;;;;;5016391;28;20125;-76
2024/01/02 01:58:57;;;;;;;5.40;1.83;;;;;;;;;;5016632;28;20100;-76
2024/01/02 02:01:23;;;;;;;5.50;2.13;;;;;;;;;;5016658;28;20378;-77
2024/01/02 02:03:49;;;;;;;4.10;1.50;;;;;;;;;;5016758;28;20027;-76
2024/01/02 02:06:15;;;;;;;4.32;1.73;;;;;;;;;;5016239;28;20030;-78
2024/01/02 02:08:41;;;;;;;2.63;1.67;;;;;;;;;;5015621;28;20026;-76
2024/01/02 02:11:06;;;;;;;5.32;2.10;;;;;;;;;;5016308;28;20038;-76
2024/01/02 02:13:31;;;;;;;4.45;1.73;;;;;;;;;;5016166;28;20018;-77
2024/01/02 02:15:56;;;;;;;6.30;1.80;;;;;;;;;;5015848;28;20030;-76
2024/01/02 02:18:22;;;;;;;3.40;1.60;;;;;;;;;;5016118;28;20050;-76
2024/01/02 02:20:47;;;;;;;3.78;1.90;;;;;;;;;;5016356;28;20273;-78
2024/01/02 02:23:13;;;;;;;8.52;1.60;;;;;;;;;;5016715;28;20029;-77
2024/01/02 02:25:38;;;;;;;1.70;1.40;;;;;;;;;;5016874;28;20014;-76
2024/01/02 02:28:03;;;;;;;2.53;1.67;;;;;;;;;;5016470;28;20041;-76
2024/01/02 02:30:28;;;;;;;5.13;1.83;;;;;;;;;;5016088;28;20092;-76
2024/01/02 02:32:54;;;;;;;3.70;1.50;;;;;;;;;;5016214;28;20030;-77
2024/01/02 02:35:19;;;;;;;5.70;2.20;;;;;;;;;;5015821;28;20024;-78
2024/01/02 02:37:44;;;;;;;3.40;2.00;;;;;;;;;;5015757;28;20072;-77
2024/01/02 02:40:10;;;;;;;2.33;1.80;;;;;;;;;;5015766;28;20053;-76
2024/01/02 02:42:35;;;;;;;3.83;1.90;;;;;;;;;;5015976;28;20347;-77
2024/01/02 02:45:03;;;;;;;1.90;1.80;;;;;;;;;;5015262;28;20375;-76
2024/01/02 02:47:28;;;;;;;6.22;2.15;;;;;;;;;;5015361;28;20026;-75
2024/01/02 02:49:53;;;;;;;1.80;1.70;;;;;;;;;;5015620;28;20125;-75
2024/01/02 02:52:21;;;;;;;5.32;2.50;;;;;;;;;;5014988;28;20273;-77
2024/01/02 02:54:46;;;;;;;2.28;2.08;;;;;;;;;;5015338;28;20026;-75
2024/01/02 02:57:12;;;;;;;5.60;2.38;;;;;;;;;;5014913;28;20510;-75
2024/01/02 02:59:37;;;;;;;3.70;2.05;;;;;;;;;;5015356;28;20030;-76
2024/01/02 03:02:02;;;;;;;5.70;2.33;;;;;;;;;;5014338;28;20085;-75
2024/01/02 03:04:28;;;;;;;3.53;2.30;;;;;;;;;;5013854;28;20018;-77
2024/01/02 03:06:53;;;;;;;3.37;2.40;;;;;;;;;;5015333;28;20517;-78
2024/01/02 03:09:18;;;;;;;3.20;2.50;;;;;;;;;;5015350;28;20275;-78
2024/01/02 03:11:44;;;;;;;3.83;2.58;;;;;;;;;;5015472;28;20010;-75
2024/01/02 03:14:09;;;;;;;3.03;2.72;;;;;;;;;;5015673;28;20014;-78
2024/01/02 03:16:34;;;;;;;4.55;2.75;;;;;;;;;;5014839;28;20043;-77
2024/01/02 03:19:00;;;;;;;2.90;2.57;;;;;;;;;;5014854;28;20030;-75
2024/01/02 03:21:28;;;;;;;4.33;2.53;;;;;;;;;;5014670;28;20330;-76
2024/01/02 03:23:54;;;;;;;3.00;2.72;;;;;;;;;;5014827;28;20257;-76
2024/01/02 03:26:19;;;;;;;3.72;3.08;;;;;;;;;;5015048;28;20489;-77
2024/01/02 03:28:45;;;;;;;10.43;3.28;;;;;;;;;;5014218;28;20129;-78
2024/01/02 03:31:10;;;;;;;7.72;3.17;;;;;;;;;;5015004;28;20121;-76
2024/01/02 03:33:35;;;;;;;3.73;3.03;;;;;;;;;;5014473;28;20080;-76
2024/01/02 03:36:00;;;;;;;7.10;2.83;;;;;;;;;;5014413;28;20442;-76
2024/01/02 03:38:25;;;;;;;3.15;2.67;;;;;;;;;;5014248;28;20398;-78
2024/01/02 03:40:51;;;;;;;5.07;2.38;;;;;;;;;;5014106;28;20431;-77
2024/01/02 03:43:16;;;;;;;5.50;2.67;;;;;;;;;;5012788;28;20030;-76
2024/01/02 03:45:41;;;;;;;2.40;2.00;;;;;;;;;;5013963;28;20018;-76
2024/01/02 03:48:06;;;;;;;3.53;2.55;;;;;;;;;;5014066;28;20374;-76
2024/01/02 03:50:32;;;;;;;3.47;2.42;;;;;;;;;;5013945;28;20022;-76
2024/01/02 03:52:57;;;;;;;3.40;2.75;;;;;;;;;;5014060;28;20434;-76
2024/01/02 03:55:22;;;;;;;4.72;3.10;;;;;;;;;;5013698;28;20368;-75
2024/01/02 03:57:51;;;;;;;4.18;3.15;;;;;;;;;;5014147;28;20049;-79
2024/01/02 04:00:16;;;;;;;5.22;3.90;;;;;;;;;;5013780;28;20034;-76
2024/01/02 04:02:41;;;;;;;6.25;4.10;;;;;;;;;;5013769;28;20026;-78
2024/01/02 04:05:07;;;;;;;4.80;3.67;;;;;;;;;;5013555;28;20457;-76
2024/01/02 04:07:32;;;;;;;4.82;4.22;;;;;;;;;;5014112;28;20033;-76
2024/01/02 04:09:58;;;;;;;4.93;3.90;;;;;;;;;;5013861;28;20029;-76
2024/01/02 04:12:23;;;;;;;4.40;3.35;;;;;;;;;;5013563;28;20113;-77
2024/01/02 04:14:48;;;;;;;4.88;3.47;;;;;;;;;;5013729;28;20494;-77
2024/01/02 04:17:14;;;;;;;3.58;3.20;;;;;;;;;;5013947;28;20128;-77
2024/01/02 04:19:39;;;;;;;3.05;2.60;;;;;;;;;;5013454;28;20474;-76
2024/01/02 04:22:04;;;;;;;4.18;2.47;;;;;;;;;;5013676;28;20044;-77
2024/01/02 04:24:30;;;;;;;3.00;2.40;;;;;;;;;;5013171;28;20105;-76
2024/01/02 04:26:55;;;;;;;3.25;2.33;;;;;;;;;;5013243;28;20022;-76
2024/01/02 04:29:20;;;;;;;2.63;1.90;;;;;;;;;;5013214;28;20018;-77
2024/01/02 04:31:45;;;;;;;3.03;2.20;;;;;;;;;;5012889;28;20763;-77
2024/01/02 04:34:10;;;;;;;3.10;2.13;;;;;;;;;;5013124;28;20261;-76
2024/01/02 04:36:36;;;;;;;1.85;1.63;;;;;;;;;;5013073;28;20065;-77
2024/01/02 04:39:03;;;;;;;2.72;1.77;;;;;;;;;;5013676;28;20026;-77
2024/01/02 04:41:28;;;;;;;2.03;1.83;;;;;;;;;;5013283;28;20140;-77
2024/01/02 04:43:53;;;;;;;3.42;1.70;;;;;;;;;;5013095;28;20434;-77
2024/01/02 04:46:18;;;;;;;5.57;2.40;;;;;;;;;;5013142;28;20488;-76
2024/01/02 04:48:43;;;;;;;4.90;2.70;;;;;;;;;;5011589;28;20022;-77
2024/01/02 04:51:09;;;;;;;11.33;3.37;;;;;;;;;;5012920;28;20288;-75
2024/01/02 04:53:34;;;;;;;10.75;3.40;;;;;;;;;;5012911;28;20264;-75
2024/01/02 04:55:59;;;;;;;11.60;3.70;;;;;;;;;;5011305;28;20022;-76
2024/01/02 04:58:25;;;;;;;17.92;3.33;;;;;;;;;;5013299;28;20509;-75
2024/01/02 05:00:50;;;;;;;13.95;3.15;;;;;;;;;;5012275;28;20053;-75
2024/01/02 05:03:15;;;;;;;15.15;2.85;;;;;;;;;;5012708;28;20030;-75
2024/01/02 05:05:40;;;;;;;20.15;2.80;;;;;;;;;;5011013;28;20366;-77
2024/01/02 05:08:06;;;;;;;30.33;4.33;;;;;;;;;;5012528;28;20530;-76
2024/01/02 05:10:31;;;;;;;30.58;3.60;;;;;;;;;;5011194;28;20300;-77
2024/01/02 05:12:56;;;;;;;52.28;4.97;;;;;;;;;;5012544;28;20030;-76
2024/01/02 05:15:22;;;;;;;42.17;4.85;;;;;;;;;;5011526;28;20029;-77
2024/01/02 05:17:47;;;;;;;33.80;4.03;;;;;;;;;;5012504;28;20031;-78
2024/01/02 05:20:12;;;;;;;40.33;4.63;;;;;;;;;;5012631;28;20622;-78
2024/01/02 05:22:37;;;;;;;38.38;3.70;;;;;;;;;;5012345;28;20084;-77
2024/01/02 05:25:03;;;;;;;42.63;4.22;;;;;;;;;;5012935;28;20142;-77
2024/01/02 05:27:28;;;;;;;40.70;4.50;;;;;;;;;;5012279;28;20017;-77
2024/01/02 05:29:53;;;;;;;31.93;3.97;;;;;;;;;;5012256;28;20072;-78
2024/01/02 05:32:18;;;;;;;25.83;3.80;;;;;;;;;;5012355;28;20261;-80
2024/01/02 05:34:44;;;;;;;29.70;3.40;;;;;;;;;;5011234;28;20034;-78
2024/01/02 05:37:09;;;;;;;31.33;3.43;;;;;;;;;;5012185;28;20029;-77
2024/01/02 05:39:34;;;;;;;32.17;3.53;;;;;;;;;;5012276;28;20284;-77
2024/01/02 05:41:59;;;;;;;35.42;3.67;;;;;;;;;;5010894;28;20080;-77
2024/01/02 05:44:24;;;;;;;36.58;3.90;;;;;;;;;;5012318;28;20429;-76
2024/01/02 05:46:50;;;;;;;33.23;3.93;;;;;;;;;;5012327;28;20026;-77
2024/01/02 05:49:15;;;;;;;24.23;4.68;;;;;;;;;;5012182;28;20253;-76
2024/01/02 05:51:40;;;;;;;27.38;3.58;;;;;;;;;;5012179;28;20474;-76
2024/01/02 05:54:05;;;;;;;32.45;3.80;;;;;;;;;;5011904;28;20119;-79
2024/01/02 05:56:31;;;;;;;26.42;4.07;;;;;;;;;;5010865;28;20144;-81
2024/01/02 05:58:56;;;;;;;28.95;4.13;;;;;;;;;;5012284;28;20386;-78
2024/01/02 06:01:21;;;;;;;34.03;3.93;;;;;;;;;;5012225;28;20153;-76
2024/01/02 06:03:46;;;;;;;36.15;4.10;;;;;;;;;;5012178;28;20399;-76
2024/01/02 06:06:13;;;;;;;32.58;4.68;;;;;;;;;;5012113;28;20053;-79
2024/01/02 06:08:38;;;;;;;31.00;3.97;;;;;;;;;;5012260;28;20026;-80
2024/01/02 06:11:04;;;;;;;31.10;3.47;;;;;;;;;;5011348;28;20108;-77
2024/01/02 06:13:29;;;;;;;28.92;4.20;;;;;;;;;;5012297;28;20139;-78
2024/01/02 06:15:55;;;;;;;21.95;3.20;;;;;;;;;;5012180;28;20037;-79
2024/01/02 06:18:20;;;;;;;29.88;4.10;;;;;;;;;;5012173;28;20426;-77
2024/01/02 06:20:45;;;;;;;27.85;4.65;;;;;;;;;;5011977;28;20076;-79
2024/01/02 06:23:10;;;;;;;30.73;3.60;;;;;;;;;;5013021;28;20029;-78
2024/01/02 06:25:35;;;;;;;35.85;4.05;;;;;;;;;;5012078;28;20033;-78
2024/01/02 06:28:01;;;;;;;29.73;3.95;;;;;;;;;;5012070;28;20026;-79
2024/01/02 06:30:26;;;;;;;24.30;3.63;;;;;;;;;;5012543;28;20033;-76
2024/01/02 06:32:51;;;;;;;27.70;3.80;;;;;;;;;;5013951;28;20026;-77
2024/01/02 06:35:17;;;;;;;21.48;3.83;;;;;;;;;;5014841;28;20026;-77
2024/01/02 06:37:42;;;;;;;27.35;4.05;;;;;;;;;;5018771;28;20037;-76
2024/01/02 06:40:08;;;;;;;31.88;4.30;;;;;;;;;;5019102;28;20026;-76
2024/01/02 06:42:34;;;;;;;25.30;3.90;;;;;;;;;;5018992;28;20022;-76
2024/01/02 06:44:59;;;;;;;29.63;5.18;;;;;;;;;;5018716;28;20421;-76
2024/01/02 06:47:24;;;;;;;21.55;3.53;;;;;;;;;;5017754;28;20451;-77
2024/01/02 06:49:50;;;;;;;31.43;4.17;;;;;;;;;;5018504;28;20378;-76
2024/01/02 06:52:15;;;;;;;31.55;4.85;;;;;;;;;;5018943;28;20783;-76
2024/01/02 06:54:40;;;;;;;34.30;4.78;;;;;;;;;;5017491;28;20072;-78
2024/01/02 06:57:05;;;;;;;27.13;4.30;;;;;;;;;;5017926;28;20371;-76
2024/01/02 06:59:31;;;;;;;37.30;5.20;;;;;;;;;;5016314;28;20280;-76
2024/01/02 07:01:56;;;;;;;33.00;4.78;;;;;;;;;;5015824;28;20038;-76
2024/01/02 07:04:21;;;;;;;34.53;4.38;;;;;;;;;;5015351;28;20080;-77
2024/01/02 07:06:46;;;;;;;37.60;5.00;;;;;;;;;;5015001;28;20387;-78
2024/01/02 07:09:12;;;;;;;46.60;5.50;;;;;;;;;;5015258;28;20263;-76
2024/01/02 07:11:37;;;;;;;44.50;5.75;;;;;;;;;;5015030;28;20296;-76
2024/01/02 07:14:03;;;;;;;37.63;5.40;;;;;;;;;;5013742;28;20455;-77
2024/01/02 07:16:28;;;;;;;35.80;5.17;;;;;;;;;;5015835;28;20030;-77
2024/01/02 07:18:54;;;;;;;46.15;6.28;;;;;;;;;;5016088;28;20268;-76
2024/01/02 07:21:19;;;;;;;42.45;5.65;;;;;;;;;;5015167;28;20036;-78
2024/01/02 07:23:44;;;;;;;47.45;6.40;;;;;;;;;;5015247;28;20033;-80
2024/01/02 07:26:09;;;;;;;57.17;6.88;;;;;;;;;;5015369;28;20026;-79
2024/01/02 07:28:35;;;;;;;43.95;5.95;;;;;;;;;;5014746;28;20022;-78
2024/01/02 07:31:00;;;;;;;44.03;6.28;;;;;;;;;;5014793;28;20065;-77
2024/01/02 07:33:26;;;;;;;48.92;6.30;;;;;;;;;;5015216;28;20022;-79
2024/01/02 07:35:51;;;;;;;47.80;6.90;;;;;;;;;;5014907;28;20026;-77
2024/01/02 07:38:16;;;;;;;59.27;7.00;;;;;;;;;;5014878;28;20179;-77
2024/01/02 07:40:41;;;;;;;51.13;6.32;;;;;;;;;;5015299;28;20741;-77
2024/01/02 07:43:06;;;;;;;53.78;6.72;;;;;;;;;;5014605;28;20026;-77
2024/01/02 07:45:32;;;;;;;56.23;7.00;;;;;;;;;;5014507;28;20042;-78
2024/01/02 07:47:57;;;;;;;43.75;5.57;;;;;;;;;;5014402;28;20323;-78
2024/01/02 07:50:22;;;;;;;42.97;6.97;;;;;;;;;;5014720;28;20068;-77
2024/01/02 07:52:47;;;;;;;48.95;5.93;;;;;;;;;;5014370;28;20411;-77
2024/01/02 07:55:13;;;;;;;44.70;6.00;;;;;;;;;;5014041;28;20017;-77
2024/01/02 07:57:38;;;;;;;59.35;6.97;;;;;;;;;;5012593;28;20640;-78
2024/01/02 08:00:04;;;;;;;39.03;5.43;;;;;;;;;;5013643;28;20066;-74
2024/01/02 08:02:30;;;;;;;53.53;6.43;;;;;;;;;;4996069;28;20022;-77
2024/01/02 08:04:55;;;;;;;50.33;6.47;;;;;;;;;;5014325;28;20029;-78
2024/01/02 08:07:20;;;;;;;44.72;6.18;;;;;;;;;;5013921;28;20487;-78
2024/01/02 08:09:45;;;;;;;36.97;5.90;;;;;;;;;;5013616;28;20029;-78
2024/01/02 08:12:11;;;;;;;41.83;5.68;;;;;;;;;;5013779;28;20257;-76
2024/01/02 08:14:36;;;;;;;39.72;5.28;;;;;;;;;;5012100;28;20044;-75
2024/01/02 08:17:01;;;;;;;49.20;6.13;;;;;;;;;;5012064;28;20033;-75
2024/01/02 08:19:27;;;;;;;36.22;5.60;;;;;;;;;;5013446;28;20068;-75
2024/01/02 08:21:52;;;;;;;42.30;5.50;;;;;;;;;;5013235;28;20485;-76
2024/01/02 08:24:17;;;;;;;43.47;6.60;;;;;;;;;;5013443;28;20040;-75
2024/01/02 08:26:43;;;;;;;33.00;4.50;;;;;;;;;;5012853;28;20133;-75
2024/01/02 08:29:08;;;;;;;37.78;5.22;;;;;;;;;;5011765;28;20026;-75
2024/01/02 08:31:34;;;;;;;44.93;6.43;;;;;;;;;;5013492;28;20030;-75
2024/01/02 08:33:59;;;;;;;32.50;4.95;;;;;;;;;;5012754;28;20333;-75
2024/01/02 08:36:24;;;;;;;51.50;6.73;;;;;;;;;;5012866;28;20177;-76
2024/01/02 08:38:49;;;;;;;44.45;5.90;;;;;;;;;;5013064;28;20708;-74
2024/01/02 08:41:14;;;;;;;41.88;7.03;;;;;;;;;;5012806;28;20427;-75
2024/01/02 08:43:40;;;;;;;50.00;7.40;;;;;;;;;;5012877;28;20048;-75
2024/01/02 08:46:05;;;;;;;47.85;6.45;;;;;;;;;;5013297;28;20542;-74
2024/01/02 08:48:31;;;;;;;44.72;5.82;;;;;;;;;;5013584;28;20521;-74
2024/01/02 08:50:56;;;;;;;48.22;6.57;;;;;;;;;;5012228;28;20038;-74
2024/01/02 08:53:21;;;;;;;44.15;6.05;;;;;;;;;;5013814;28;20022;-75
2024/01/02 08:55:46;;;;;;;53.75;7.35;;;;;;;;;;5013443;28;20168;-76
2024/01/02 08:58:12;;;;;;;51.30;6.87;;;;;;;;;;5013282;28;20463;-77
2024/01/02 09:00:37;;;;;;;60.78;7.47;;;;;;;;;;5013259;28;20777;-77
2024/01/02 09:03:03;;;;;;;48.85;6.85;;;;;;;;;;5013321;28;20018;-75
2024/01/02 09:05:28;;;;;;;54.95;7.15;;;;;;;;;;5013214;28;20157;-76
2024/01/02 09:07:54;;;;;;;53.92;7.10;;;;;;;;;;5013256;28;20037;-75
2024/01/02 09:10:19;;;;;;;47.60;6.97;;;;;;;;;;5013297;28;20026;-76
2024/01/02 09:12:45;;;;;;;58.38;8.15;;;;;;;;;;5013055;28;20033;-75
2024/01/02 09:15:10;;;;;;;54.33;6.75;;;;;;;;;;5013184;28;20081;-77
2024/01/02 09:17:35;;;;;;;50.72;7.32;;;;;;;;;;5012688;28;20462;-75
2024/01/02 09:20:01;;;;;;;44.97;6.82;;;;;;;;;;5012751;28;20105;-76
2024/01/02 09:22:26;;;;;;;56.05;7.38;;;;;;;;;;5012698;28;20306;-76
2024/01/02 09:24:52;;;;;;;50.30;7.18;;;;;;;;;;5012811;28;20064;-76
2024/01/02 09:27:18;;;;;;;37.22;5.43;;;;;;;;;;5012642;28;20033;-77
2024/01/02 09:29:43;;;;;;;42.80;7.03;;;;;;;;;;5011642;28;20033;-76
2024/01/02 09:32:09;;;;;;;52.30;6.53;;;;;;;;;;5012960;28;20088;-77
2024/01/02 09:34:35;;;;;;;53.25;6.13;;;;;;;;;;5012791;28;20260;-77
2024/01/02 09:37:00;;;;;;;53.40;6.18;;;;;;;;;;5012808;28;20033;-76
2024/01/02 09:39:25;;;;;;;46.65;5.93;;;;;;;;;;5012750;28;20021;-77
2024/01/02 09:41:54;;;;;;;37.23;4.93;;;;;;;;;;5012765;28;20022;-77
2024/01/02 09:44:19;;;;;;;41.53;5.60;;;;;;;;;;5012592;28;20348;-76
2024/01/02 09:46:56;;;;;;;41.77;5.53;;;;;;;;;;5012595;28;20459;-74
2024/01/02 09:49:34;;;;;;;34.15;4.97;;;;;;;;;;5013044;28;20290;-75
2024/01/02 09:52:14;;;;;;;39.72;5.78;;;;;;;;;;5013158;28;20443;-74
2024/01/02 09:54:40;;;;;;;28.27;4.30;;;;;;;;;;5013058;28;20026;-76
2024/01/02 09:57:34;;;;;;;37.60;5.30;;;;;;;;;;5012865;28;20501;-76
2024/01/02 10:00:11;;;;;;;31.48;3.80;;;;;;;;;;4959538;28;20097;-75
2024/01/02 10:02:46;;;;;;;29.30;4.40;;;;;;;;;;5012956;28;20022;-76
2024/01/02 10:05:34;;;;;;;27.75;4.53;;;;;;;;;;5012774;28;20021;-79
2024/01/02 10:07:59;;;;;;;25.80;3.53;;;;;;;;;;4984685;28;20327;-77
2024/01/02 10:10:29;;;;;;;25.13;3.92;;;;;;;;;;5011546;28;20025;-77
2024/01/02 10:13:04;;;;;;;26.27;3.95;;;;;;;;;;5016622;28;20021;-76
2024/01/02 10:15:43;;;;;;;30.60;4.43;;;;;;;;;;5016406;28;20020;-78
2024/01/02 10:18:20;;;;;;;24.80;3.83;;;;;;;;;;5016389;28;20152;-76
2024/01/02 10:20:52;;;;;;;21.60;3.88;;;;;;;;;;5016706;28;20099;-75
2024/01/02 10:23:17;;;;;;;17.38;3.40;;;;;;;;;;5016571;28;20033;-76
2024/01/02 10:25:42;;;;;;;20.57;3.93;;;;;;;;;;5015991;28;20018;-76
2024/01/02 10:28:17;;;;;;;28.10;4.90;;;;;;;;;;5014351;28;20296;-77
2024/01/02 10:30:56;;;;;;;20.52;3.42;;;;;;;;;;5015393;28;20030;-77
2024/01/02 10:33:31;;;;;;;24.38;3.78;;;;;;;;;;5015385;28;20087;-76
2024/01/02 10:36:04;;;;;;;17.88;3.80;;;;;;;;;;5015387;28;20439;-76
2024/01/02 10:38:29;;;;;;;22.95;3.90;;;;;;;;;;5014994;28;20029;-75
2024/01/02 10:41:00;;;;;;;23.97;3.53;;;;;;;;;;5015743;28;20030;-76
2024/01/02 10:43:30;;;;;;;17.83;3.10;;;;;;;;;;5015825;28;20129;-75
2024/01/02 10:46:04;;;;;;;19.35;3.30;;;;;;;;;;5015166;28;20084;-76
2024/01/02 10:48:47;;;;;;;18.25;3.20;;;;;;;;;;5015269;28;20022;-77
2024/01/02 10:51:22;;;;;;;23.38;3.63;;;;;;;;;;5015349;28;20034;-76
2024/01/02 10:54:13;;;;;;;18.30;3.72;;;;;;;;;;5015205;28;20033;-78
2024/01/02 10:56:40;;;;;;;19.98;3.83;;;;;;;;;;5012078;28;21231;-76
2024/01/02 10:59:24;;;;;;;22.30;3.45;;;;;;;;;;5014574;28;20024;-76
2024/01/02 11:01:51;;;;;;;12.18;3.05;;;;;;;;;;5015030;28;20022;-77
2024/01/02 11:04:21;;;;;;;23.23;3.85;;;;;;;;;;5015186;28;20116;-78
2024/01/02 11:07:00;;;;;;;15.45;3.25;;;;;;;;;;5015367;28;20026;-77
2024/01/02 11:09:57;;;;;;;9.18;2.33;;;;;;;;;;5015704;28;20049;-76
2024/01/02 11:12:25;;;;;;;10.73;2.92;;;;;;;;;;4984742;28;20116;-76
2024/01/02 11:14:51;;;;;;;11.70;3.17;;;;;;;;;;5017438;28;20018;-76
2024/01/02 11:17:17;;;;;;;10.25;3.30;;;;;;;;;;5017684;28;20026;-77
2024/01/02 11:20:03;;;;;;;10.52;3.30;;;;;;;;;;5016403;28;20101;-76
2024/01/02 11:22:43;;;;;;;14.45;4.72;;;;;;;;;;5014795;28;20097;-76
2024/01/02 11:25:09;;;;;;;14.43;5.00;;;;;;;;;;5015519;28;20014;-77
2024/01/02 11:27:37;;;;;;;9.68;4.47;;;;;;;;;;5015790;28;20086;-76
2024/01/02 11:30:04;;;;;;;8.98;5.10;;;;;;;;;;5014543;28;20076;-79
2024/01/02 11:32:39;;;;;;;11.13;4.82;;;;;;;;;;5013505;28;20033;-77
2024/01/02 11:35:06;;;;;;;8.27;5.10;;;;;;;;;;5015088;28;20018;-78
2024/01/02 11:37:37;;;;;;;6.40;4.90;;;;;;;;;;5014410;28;20056;-76
2024/01/02 11:40:21;;;;;;;7.82;4.28;;;;;;;;;;5015772;28;20033;-77
2024/01/02 11:42:59;;;;;;;6.97;4.78;;;;;;;;;;5014857;28;20044;-76
2024/01/02 11:45:26;;;;;;;6.57;4.78;;;;;;;;;;5015301;28;20022;-77
2024/01/02 11:48:03;;;;;;;6.22;4.75;;;;;;;;;;5014883;28;20057;-78
2024/01/02 11:50:48;;;;;;;7.40;4.97;;;;;;;;;;5014978;28;20355;-77
2024/01/02 11:53:22;;;;;;;7.15;5.05;;;;;;;;;;4984034;28;20033;-77
2024/01/02 11:55:55;;;;;;;7.10;5.22;;;;;;;;;;5015074;28;20077;-77
2024/01/02 11:58:31;;;;;;;6.88;4.45;;;;;;;;;;5015244;28;20045;-76
2024/01/02 12:01:06;;;;;;;6.97;4.43;;;;;;;;;;5015092;28;20026;-77
2024/01/02 12:03:35;;;;;;;6.63;4.30;;;;;;;;;;5014539;28;20018;-77
2024/01/02 12:06:05;;;;;;;6.05;4.60;;;;;;;;;;5014586;28;20455;-75
2024/01/02 12:08:31;;;;;;;8.90;5.50;;;;;;;;;;5015256;28;20099;-75
2024/01/02 12:11:03;;;;;;;7.53;5.93;;;;;;;;;;5015041;28;20113;-75
2024/01/02 12:13:28;;;;;;;9.45;5.32;;;;;;;;;;5015181;28;20017;-75
2024/01/02 12:15:55;;;;;;;6.23;4.00;;;;;;;;;;5014848;28;20097;-75
2024/01/02 12:18:21;;;;;;;3.75;3.40;;;;;;;;;;4997484;28;20327;-76
2024/01/02 12:20:50;;;;;;;3.45;3.15;;;;;;;;;;5014051;28;20029;-75
2024/01/02 12:23:15;;;;;;;3.35;2.80;;;;;;;;;;5014449;28;20030;-75
2024/01/02 12:25:42;;;;;;;2.53;2.33;;;;;;;;;;5014560;28;20506;-75
2024/01/02 12:28:07;;;;;;;3.55;2.58;;;;;;;;;;5014263;28;20049;-77
2024/01/02 12:30:44;;;;;;;3.03;2.55;;;;;;;;;;5014024;28;20064;-75
2024/01/02 12:33:18;;;;;;;4.22;2.72;;;;;;;;;;5013673;28;20407;-75
2024/01/02 12:36:02;;;;;;;4.30;1.80;;;;;;;;;;5013715;28;20018;-77
2024/01/02 12:38:30;;;;;;;2.50;1.90;;;;;;;;;;5013975;28;20068;-77
2024/01/02 12:40:59;;;;;;;1.80;1.70;;;;;;;;;;5012897;28;20458;-77
2024/01/02 12:43:29;;;;;;;2.00;1.80;;;;;;;;;;5013194;28;20499;-76
2024/01/02 12:46:16;;;;;;;1.95;1.75;;;;;;;;;;5013082;28;20118;-75
2024/01/02 12:48:50;;;;;;;7.95;1.60;;;;;;;;;;5012797;28;20021;-76
2024/01/02 12:51:15;;;;;;;5.57;1.80;;;;;;;;;;5013041;28;20096;-74
2024/01/02 12:53:42;;;;;;;3.58;1.92;;;;;;;;;;4995294;28;20379;-75
2024/01/02 12:56:08;;;;;;;2.33;1.55;;;;;;;;;;5013197;28;20030;-75
2024/01/02 12:58:33;;;;;;;4.68;1.63;;;;;;;;;;5013477;28;20133;-75
2024/01/02 13:01:00;;;;;;;1.30;1.20;;;;;;;;;;5012494;28;20125;-75
2024/01/02 13:03:25;;;;;;;1.83;1.30;;;;;;;;;;5012819;28;20101;-76
2024/01/02 13:05:50;;;;;;;1.85;1.20;;;;;;;;;;5013251;28;20554;-75
2024/01/02 13:08:19;;;;;;;2.67;1.30;;;;;;;;;;5012440;28;20025;-76
2024/01/02 13:10:45;;;;;;;4.32;1.30;;;;;;;;;;5013648;28;20348;-76
2024/01/02 13:13:11;;;;;;;3.47;1.67;;;;;;;;;;5013459;28;20431;-75
2024/01/02 13:15:37;;;;;;;1.73;1.63;;;;;;;;;;5013200;28;20036;-76
2024/01/02 13:18:02;;;;;;;2.72;1.70;;;;;;;;;;5013384;28;20449;-75
2024/01/02 13:20:28;;;;;;;2.40;1.98;;;;;;;;;;5013314;28;20036;-75
2024/01/02 13:22:55;;;;;;;3.03;2.50;;;;;;;;;;5013674;28;20026;-74
2024/01/02 13:25:21;;;;;;;2.95;2.40;;;;;;;;;;5012248;28;20046;-75
2024/01/02 13:27:46;;;;;;;3.13;2.30;;;;;;;;;;5013143;28;20443;-76
2024/01/02 13:30:12;;;;;;;3.35;2.10;;;;;;;;;;5012711;28;20101;-76
2024/01/02 13:32:37;;;;;;;2.10;1.90;;;;;;;;;;5013491;28;20026;-79
2024/01/02 13:35:16;;;;;;;1.80;1.70;;;;;;;;;;5012783;28;20476;-76
2024/01/02 13:37:41;;;;;;;1.88;1.77;;;;;;;;;;5013770;28;20084;-77
2024/01/02 13:40:16;;;;;;;1.58;1.48;;;;;;;;;;5013771;28;20402;-76
2024/01/02 13:42:41;;;;;;;3.22;1.45;;;;;;;;;;5013295;28;20045;-76
2024/01/02 13:45:20;;;;;;;2.33;1.38;;;;;;;;;;5014652;28;20406;-75
2024/01/02 13:47:46;;;;;;;2.75;1.80;;;;;;;;;;5017378;28;20018;-77
2024/01/02 13:50:11;;;;;;;7.30;2.10;;;;;;;;;;5016767;28;20320;-78
2024/01/02 13:52:38;;;;;;;4.93;2.28;;;;;;;;;;5016793;28;20457;-78
2024/01/02 13:55:04;;;;;;;6.85;2.08;;;;;;;;;;5016979;28;20033;-75
2024/01/02 13:57:33;;;;;;;6.10;2.60;;;;;;;;;;5016912;28;20050;-76
2024/01/02 14:00:12;;;;;;;4.43;2.00;;;;;;;;;;5017616;28;20033;-76
2024/01/02 14:02:52;;;;;;;2.47;2.20;;;;;;;;;;5017577;28;20029;-78
2024/01/02 14:05:27;;;;;;;5.90;2.72;;;;;;;;;;5017088;28;20123;-77
2024/01/02 14:07:53;;;;;;;3.10;2.80;;;;;;;;;;5017299;28;20044;-75
2024/01/02 14:10:25;;;;;;;3.53;2.95;;;;;;;;;;5017123;28;20435;-77
2024/01/02 14:12:51;;;;;;;5.70;3.20;;;;;;;;;;5016834;28;20029;-76
2024/01/02 14:15:23;;;;;;;5.57;3.50;;;;;;;;;;5016537;28;20033;-75
2024/01/02 14:18:07;;;;;;;5.88;3.15;;;;;;;;;;5017078;28;20022;-76
2024/01/02 14:20:38;;;;;;;6.28;3.60;;;;;;;;;;5016635;28;20501;-76
2024/01/02 14:23:04;;;;;;;;;;;;;;;;;;5017416;28;20053;-75
2024/01/02 14:26:04;;;;;;;4.13;3.70;;;;;;;;;;5016890;28;19952;-75
2024/01/02 14:28:34;;;;;;;5.50;3.60;;;;;;;;;;4955996;29;20294;-77
2024/01/02 14:31:05;;;;;;;7.80;3.72;;;;;;;;;;5000353;28;20103;-75
2024/01/02 14:33:37;;;;;;;5.07;4.00;;;;;;;;;;5015989;28;20053;-76
2024/01/02 14:36:12;;;;;;;4.85;3.58;;;;;;;;;;5016130;28;20033;-75